Time;durP1;ratioP1;P1;durP2;ratioP2;P2;SDS_P1;SDS_P2;PMS_P1;PMS_P2;Temp;Humidity;BMP_temperature;BMP_pressure;BME280_temperature;BME280_humidity;BME280_pressure;Samples;Min_cycle;Max_cycle;Signal;HPM_P1;HPM_P2
2023/12/03 00:00:07;;;;;;;23.37;11.10;;;;;;;;;;5096651;28;20720;-68
2023/12/03 00:02:35;;;;;;;20.13;10.10;;;;;;;;;;5078877;28;20429;-69
2023/12/03 00:05:02;;;;;;;18.27;9.97;;;;;;;;;;5097279;28;20427;-69
2023/12/03 00:07:29;;;;;;;20.07;9.87;;;;;;;;;;5078838;28;20439;-69
2023/12/03 00:09:56;;;;;;;23.73;11.20;;;;;;;;;;5062716;28;20773;-69
2023/12/03 00:12:40;;;;;;;18.83;9.63;;;;;;;;;;5079487;28;20439;-69
2023/12/03 00:15:07;;;;;;;18.13;9.23;;;;;;;;;;5096331;28;20922;-69
2023/12/03 00:17:34;;;;;;;18.47;9.17;;;;;;;;;;5079132;28;20436;-69
2023/12/03 00:20:01;;;;;;;20.17;10.07;;;;;;;;;;5094805;28;20459;-69
2023/12/03 00:22:28;;;;;;;17.53;9.47;;;;;;;;;;5096713;28;20431;-69
2023/12/03 00:25:12;;;;;;;17.50;8.90;;;;;;;;;;5095920;28;20404;-69
2023/12/03 00:27:39;;;;;;;17.80;8.67;;;;;;;;;;5061773;28;20413;-69
2023/12/03 00:30:06;;;;;;;13.90;7.83;;;;;;;;;;5077896;28;20754;-69
2023/12/03 00:32:33;;;;;;;17.03;8.20;;;;;;;;;;5095389;28;20418;-69
2023/12/03 00:38:05;;;;;;;16.07;8.13;;;;;;;;;;5094729;28;20498;-68
2023/12/03 00:44:31;;;;;;;12.33;7.03;;;;;;;;;;5096050;28;20458;-68
2023/12/03 00:50:11;;;;;;;13.37;7.30;;;;;;;;;;5095156;28;20415;-68
2023/12/03 00:52:37;;;;;;;14.13;7.27;;;;;;;;;;5096086;28;20938;-69
2023/12/03 00:55:39;;;;;;;13.30;7.37;;;;;;;;;;5060866;28;20451;-69
2023/12/03 00:58:06;;;;;;;14.47;7.97;;;;;;;;;;5096012;28;20423;-68
2023/12/03 01:00:33;;;;;;;14.23;7.60;;;;;;;;;;5061479;28;20403;-68
2023/12/03 01:02:59;;;;;;;16.73;7.90;;;;;;;;;;5077779;28;20852;-68
2023/12/03 01:05:26;;;;;;;14.97;8.27;;;;;;;;;;5076222;28;20424;-68
2023/12/03 01:07:54;;;;;;;16.70;9.10;;;;;;;;;;5075663;28;20423;-69
2023/12/03 01:10:20;;;;;;;15.90;8.93;;;;;;;;;;5095215;28;20800;-69
2023/12/03 01:49:00;;;;;;;16.77;8.73;;;;;;;;;;5095044;28;20413;-69
2023/12/03 01:59:38;;;;;;;18.47;8.87;;;;;;;;;;5092998;28;20486;-68
2023/12/03 02:02:04;;;;;;;16.40;8.53;;;;;;;;;;5093983;28;20464;-68
2023/12/03 02:04:31;;;;;;;13.20;7.60;;;;;;;;;;5076709;28;20431;-68
2023/12/03 02:06:58;;;;;;;14.60;7.97;;;;;;;;;;5094120;28;20473;-68
2023/12/03 02:13:24;;;;;;;18.47;8.57;;;;;;;;;;5094269;28;20488;-68
2023/12/03 02:15:50;;;;;;;16.63;8.53;;;;;;;;;;5075783;28;20463;-69
2023/12/03 02:22:11;;;;;;;16.87;7.70;;;;;;;;;;5093958;28;20456;-69
2023/12/03 02:28:37;;;;;;;14.87;7.27;;;;;;;;;;5094206;28;20914;-68
2023/12/03 02:31:04;;;;;;;13.67;7.50;;;;;;;;;;5094885;28;20415;-68
2023/12/03 02:33:30;;;;;;;9.93;5.53;;;;;;;;;;5058974;28;20420;-68
2023/12/03 02:35:58;;;;;;;11.17;6.60;;;;;;;;;;5057948;28;20941;-68
2023/12/03 02:38:25;;;;;;;10.17;5.70;;;;;;;;;;5075319;28;20914;-68
2023/12/03 02:40:52;;;;;;;9.50;5.93;;;;;;;;;;5093004;28;20937;-69
2023/12/03 02:43:18;;;;;;;10.63;5.80;;;;;;;;;;5075369;28;20432;-68
2023/12/03 02:49:39;;;;;;;7.10;4.33;;;;;;;;;;5093834;28;20447;-68
2023/12/03 02:55:22;;;;;;;8.90;4.63;;;;;;;;;;5091144;28;20467;-68
2023/12/03 02:58:06;;;;;;;9.90;4.77;;;;;;;;;;5092984;28;20423;-68
2023/12/03 03:04:32;;;;;;;7.90;4.30;;;;;;;;;;5093640;28;20359;-68
2023/12/03 03:06:58;;;;;;;6.53;4.30;;;;;;;;;;5059618;28;20442;-69
2023/12/03 03:09:43;;;;;;;8.97;5.20;;;;;;;;;;5092595;28;20476;-68
2023/12/03 03:20:08;;;;;;;10.57;4.83;;;;;;;;;;5073719;28;20925;-68
2023/12/03 03:22:35;;;;;;;10.03;5.40;;;;;;;;;;5055566;28;20530;-69
2023/12/03 03:25:03;;;;;;;10.97;5.40;;;;;;;;;;5055817;28;20975;-69
2023/12/03 03:27:30;;;;;;;9.23;4.83;;;;;;;;;;5037888;28;20433;-68
2023/12/03 03:30:22;;;;;;;9.67;5.93;;;;;;;;;;5037856;28;20436;-68
2023/12/03 03:32:49;;;;;;;12.20;5.83;;;;;;;;;;5059216;28;20464;-71
2023/12/03 03:35:33;;;;;;;9.30;5.37;;;;;;;;;;5061888;28;20438;-68
2023/12/03 03:41:59;;;;;;;5.93;3.73;;;;;;;;;;5077047;28;20728;-68
2023/12/03 03:44:25;;;;;;;6.63;4.10;;;;;;;;;;5076574;28;20522;-68
2023/12/03 03:51:09;;;;;;;5.10;3.40;;;;;;;;;;5076444;28;20466;-68
2023/12/03 03:57:41;;;;;;;4.60;3.53;;;;;;;;;;5076072;28;20486;-68
2023/12/03 04:00:08;;;;;;;6.20;4.53;;;;;;;;;;5059261;28;20775;-68
2023/12/03 04:02:38;;;;;;;7.60;4.97;;;;;;;;;;5058431;28;20424;-68
2023/12/03 04:05:05;;;;;;;5.53;4.27;;;;;;;;;;5058059;28;20431;-67
2023/12/03 04:07:32;;;;;;;6.87;3.87;;;;;;;;;;5058789;28;20942;-67
2023/12/03 04:09:59;;;;;;;6.50;3.90;;;;;;;;;;5058523;28;20434;-67
2023/12/03 04:12:25;;;;;;;4.03;3.47;;;;;;;;;;5058556;28;20428;-67
2023/12/03 04:14:52;;;;;;;5.90;3.73;;;;;;;;;;5041742;28;20497;-67
2023/12/03 04:17:19;;;;;;;6.63;3.60;;;;;;;;;;5058726;28;20448;-68
2023/12/03 04:19:46;;;;;;;5.07;3.27;;;;;;;;;;5059009;28;20431;-68
2023/12/03 04:26:28;;;;;;;8.37;4.10;;;;;;;;;;5075864;28;20360;-68
2023/12/03 04:29:22;;;;;;;6.27;3.77;;;;;;;;;;5075866;28;20400;-68
2023/12/03 04:31:49;;;;;;;5.77;3.60;;;;;;;;;;5058879;28;20435;-68
2023/12/03 04:34:15;;;;;;;7.57;3.83;;;;;;;;;;5076220;28;20416;-68
2023/12/03 04:36:43;;;;;;;7.77;4.00;;;;;;;;;;5058219;28;20468;-68
2023/12/03 04:39:23;;;;;;;7.87;3.80;;;;;;;;;;5040474;28;20467;-68
2023/12/03 04:41:50;;;;;;;6.90;3.60;;;;;;;;;;5074420;28;20479;-68
2023/12/03 04:44:17;;;;;;;5.30;3.33;;;;;;;;;;5057729;28;20447;-68
2023/12/03 04:46:43;;;;;;;4.83;3.50;;;;;;;;;;5074478;28;20448;-68
2023/12/03 04:49:10;;;;;;;6.63;3.70;;;;;;;;;;5041526;28;20416;-68
2023/12/03 04:51:37;;;;;;;6.60;3.63;;;;;;;;;;5075615;28;20475;-69
2023/12/03 04:54:04;;;;;;;5.53;3.30;;;;;;;;;;5057917;28;20510;-68
2023/12/03 04:56:31;;;;;;;8.53;3.67;;;;;;;;;;5039506;28;21049;-69
2023/12/03 04:58:57;;;;;;;6.63;3.50;;;;;;;;;;5057122;28;20431;-69
2023/12/03 05:01:24;;;;;;;6.93;3.90;;;;;;;;;;5075724;28;20433;-73
2023/12/03 05:04:08;;;;;;;6.37;3.30;;;;;;;;;;5074997;28;20423;-68
2023/12/03 05:06:35;;;;;;;7.63;3.60;;;;;;;;;;5041168;28;20439;-68
2023/12/03 05:09:02;;;;;;;6.47;3.63;;;;;;;;;;5041362;28;20440;-69
2023/12/03 05:11:28;;;;;;;7.70;3.47;;;;;;;;;;5057981;28;20428;-69
2023/12/03 05:17:06;;;;;;;6.27;3.50;;;;;;;;;;5073701;28;20490;-68
2023/12/03 05:19:32;;;;;;;4.97;2.93;;;;;;;;;;5040225;28;20483;-69
2023/12/03 05:21:59;;;;;;;7.33;3.90;;;;;;;;;;5074408;28;20428;-69
2023/12/03 05:28:20;;;;;;;7.70;4.00;;;;;;;;;;5074960;28;20406;-69
2023/12/03 05:38:10;;;;;;;7.97;3.87;;;;;;;;;;5074292;28;20438;-69
2023/12/03 05:40:36;;;;;;;7.10;3.40;;;;;;;;;;5056369;28;20895;-69
2023/12/03 05:43:03;;;;;;;5.20;2.87;;;;;;;;;;5057180;28;20420;-69
2023/12/03 05:45:29;;;;;;;5.93;3.60;;;;;;;;;;5057111;28;20432;-69
2023/12/03 05:47:56;;;;;;;7.20;3.47;;;;;;;;;;5055762;28;20430;-69
2023/12/03 05:50:24;;;;;;;4.00;2.87;;;;;;;;;;5056044;28;20416;-69
2023/12/03 05:52:51;;;;;;;5.47;3.00;;;;;;;;;;5055993;28;20428;-67
2023/12/03 05:55:18;;;;;;;5.60;2.87;;;;;;;;;;5056558;28;20525;-69
2023/12/03 05:57:45;;;;;;;3.60;2.80;;;;;;;;;;5072784;28;20566;-69
2023/12/03 06:00:12;;;;;;;4.93;3.10;;;;;;;;;;5040822;28;20433;-69
2023/12/03 06:02:38;;;;;;;5.43;3.20;;;;;;;;;;5040728;28;20419;-69
2023/12/03 06:05:58;;;;;;;4.87;3.10;;;;;;;;;;5044234;28;20400;-68
2023/12/03 06:08:24;;;;;;;4.47;2.70;;;;;;;;;;5073439;28;20461;-68
2023/12/03 06:10:51;;;;;;;7.43;3.20;;;;;;;;;;5074686;28;20891;-68
2023/12/03 06:17:17;;;;;;;5.97;2.63;;;;;;;;;;5074188;28;20449;-68
2023/12/03 06:19:44;;;;;;;5.63;3.17;;;;;;;;;;5056450;28;20428;-68
2023/12/03 06:25:24;;;;;;;5.13;2.87;;;;;;;;;;5072492;28;20760;-68
2023/12/03 06:32:07;;;;;;;4.80;2.63;;;;;;;;;;5074249;28;20387;-68
2023/12/03 06:34:34;;;;;;;5.03;3.03;;;;;;;;;;5056914;28;20436;-68
2023/12/03 06:37:02;;;;;;;4.03;2.77;;;;;;;;;;5055939;28;20454;-69
2023/12/03 06:39:29;;;;;;;4.37;2.30;;;;;;;;;;5039019;28;20448;-69
2023/12/03 06:42:13;;;;;;;4.03;2.63;;;;;;;;;;5058189;28;20421;-68
2023/12/03 06:44:40;;;;;;;4.80;2.53;;;;;;;;;;5055672;28;20416;-68
2023/12/03 06:47:10;;;;;;;5.10;3.00;;;;;;;;;;5040546;28;20466;-68
2023/12/03 06:49:37;;;;;;;4.20;2.77;;;;;;;;;;5055977;28;20440;-68
2023/12/03 06:52:04;;;;;;;4.20;2.50;;;;;;;;;;5057003;28;20511;-68
2023/12/03 06:54:31;;;;;;;4.37;2.50;;;;;;;;;;5040190;28;20422;-69
2023/12/03 06:57:02;;;;;;;5.00;3.13;;;;;;;;;;5039041;28;20483;-69
2023/12/03 06:59:29;;;;;;;4.23;2.47;;;;;;;;;;5072125;28;20575;-68
2023/12/03 07:01:55;;;;;;;5.20;2.50;;;;;;;;;;5055435;28;20891;-68
2023/12/03 07:04:22;;;;;;;5.63;2.80;;;;;;;;;;5073264;28;20424;-69
2023/12/03 07:10:48;;;;;;;4.90;2.90;;;;;;;;;;5077892;28;20427;-68
2023/12/03 07:13:15;;;;;;;4.17;2.47;;;;;;;;;;5060175;28;20894;-67
2023/12/03 07:15:42;;;;;;;5.30;3.00;;;;;;;;;;5076186;28;20481;-68
2023/12/03 07:18:08;;;;;;;4.90;2.70;;;;;;;;;;5076725;28;20421;-68
2023/12/03 07:20:35;;;;;;;3.37;2.23;;;;;;;;;;5059899;28;20417;-67
2023/12/03 07:31:07;;;;;;;4.30;2.67;;;;;;;;;;5077421;28;20455;-67
2023/12/03 07:33:35;;;;;;;5.67;3.10;;;;;;;;;;5058331;28;20470;-70
2023/12/03 07:36:19;;;;;;;7.10;3.47;;;;;;;;;;5061122;28;20455;-69
2023/12/03 07:38:46;;;;;;;6.10;3.07;;;;;;;;;;5076812;28;20412;-67
2023/12/03 07:41:12;;;;;;;4.97;2.83;;;;;;;;;;5076953;28;20424;-67
2023/12/03 07:43:39;;;;;;;4.63;2.80;;;;;;;;;;5042896;28;20989;-67
2023/12/03 07:46:06;;;;;;;5.30;3.07;;;;;;;;;;5059869;28;20902;-67
2023/12/03 07:48:33;;;;;;;4.73;2.83;;;;;;;;;;5059230;28;20903;-69
2023/12/03 07:51:00;;;;;;;6.00;3.03;;;;;;;;;;5041757;28;20534;-69
2023/12/03 07:53:35;;;;;;;6.63;3.13;;;;;;;;;;5076233;28;20431;-69
2023/12/03 07:56:01;;;;;;;6.33;3.37;;;;;;;;;;5059032;28;20450;-68
2023/12/03 07:58:28;;;;;;;5.27;3.27;;;;;;;;;;5042581;28;20930;-68
2023/12/03 08:00:55;;;;;;;6.20;3.20;;;;;;;;;;5042732;28;20436;-68
2023/12/03 08:03:21;;;;;;;4.27;2.70;;;;;;;;;;5059306;28;20462;-68
2023/12/03 08:06:06;;;;;;;4.77;2.80;;;;;;;;;;5077229;28;20911;-69
2023/12/03 08:08:33;;;;;;;5.73;3.43;;;;;;;;;;5075547;28;20405;-68
2023/12/03 08:11:00;;;;;;;5.87;3.20;;;;;;;;;;5057246;28;20444;-69
2023/12/03 08:13:27;;;;;;;6.30;3.00;;;;;;;;;;5058781;28;20468;-68
2023/12/03 08:15:53;;;;;;;4.70;2.67;;;;;;;;;;5041442;28;20438;-67
2023/12/03 08:18:20;;;;;;;3.50;2.70;;;;;;;;;;5075400;28;20448;-67
2023/12/03 08:20:47;;;;;;;4.53;2.70;;;;;;;;;;5075424;28;20417;-68
2023/12/03 08:23:13;;;;;;;3.67;2.50;;;;;;;;;;5076650;28;20471;-69
2023/12/03 08:26:06;;;;;;;3.93;2.50;;;;;;;;;;5040424;28;20423;-67
2023/12/03 08:28:50;;;;;;;4.10;2.40;;;;;;;;;;5074902;28;20408;-68
2023/12/03 08:31:17;;;;;;;4.30;2.40;;;;;;;;;;5074681;28;20506;-68
2023/12/03 08:33:44;;;;;;;4.57;2.40;;;;;;;;;;5058501;28;20424;-68
2023/12/03 08:40:11;;;;;;;4.73;2.60;;;;;;;;;;5076083;28;20362;-69
2023/12/03 08:42:39;;;;;;;4.57;2.30;;;;;;;;;;5040556;28;20439;-71
2023/12/03 08:45:06;;;;;;;4.67;2.53;;;;;;;;;;5041095;28;20440;-68
2023/12/03 08:47:33;;;;;;;7.77;3.37;;;;;;;;;;5058558;28;20436;-68
2023/12/03 08:49:59;;;;;;;6.47;3.20;;;;;;;;;;5041705;28;20519;-68
2023/12/03 08:52:44;;;;;;;7.43;3.10;;;;;;;;;;5075227;28;20809;-68
2023/12/03 08:55:10;;;;;;;5.50;3.43;;;;;;;;;;5075183;28;20465;-68
2023/12/03 08:57:39;;;;;;;8.23;4.23;;;;;;;;;;5074775;28;20525;-68
2023/12/03 09:00:08;;;;;;;10.57;4.07;;;;;;;;;;5056973;28;20428;-68
2023/12/03 09:02:35;;;;;;;7.83;4.00;;;;;;;;;;5040898;28;20448;-68
2023/12/03 09:05:20;;;;;;;6.80;3.20;;;;;;;;;;5046377;28;20401;-69
2023/12/03 09:07:47;;;;;;;6.83;3.73;;;;;;;;;;5075948;28;20429;-68
2023/12/03 09:10:32;;;;;;;9.53;4.40;;;;;;;;;;5046226;28;20385;-67
2023/12/03 09:12:59;;;;;;;11.63;4.30;;;;;;;;;;5075275;28;20471;-67
2023/12/03 09:15:40;;;;;;;8.63;4.53;;;;;;;;;;5073880;28;20424;-67
2023/12/03 09:18:07;;;;;;;11.87;4.17;;;;;;;;;;5073171;28;20548;-69
2023/12/03 09:20:34;;;;;;;12.27;5.23;;;;;;;;;;5057334;28;20449;-68
2023/12/03 09:27:01;;;;;;;11.87;5.87;;;;;;;;;;5075172;28;20375;-68
2023/12/03 09:29:29;;;;;;;10.17;5.23;;;;;;;;;;5056873;28;20515;-69
2023/12/03 09:32:21;;;;;;;9.53;4.80;;;;;;;;;;5074409;28;20416;-69
2023/12/03 09:34:49;;;;;;;11.03;5.47;;;;;;;;;;5072466;28;20432;-67
2023/12/03 09:37:16;;;;;;;8.50;4.60;;;;;;;;;;5057255;28;20454;-67
2023/12/03 09:43:43;;;;;;;8.60;4.27;;;;;;;;;;5074846;28;20451;-68
2023/12/03 09:46:14;;;;;;;10.07;4.60;;;;;;;;;;5041062;28;20444;-69
2023/12/03 09:49:01;;;;;;;7.60;3.60;;;;;;;;;;5059307;28;20867;-68
2023/12/03 09:51:31;;;;;;;7.57;3.90;;;;;;;;;;5055929;28;20808;-69
2023/12/03 09:54:00;;;;;;;6.17;3.40;;;;;;;;;;5039927;28;20467;-68
2023/12/03 09:56:27;;;;;;;8.27;4.23;;;;;;;;;;5056630;28;20451;-68
2023/12/03 09:58:54;;;;;;;8.57;4.57;;;;;;;;;;5057184;28;20432;-69
2023/12/03 10:01:22;;;;;;;9.13;5.20;;;;;;;;;;5073813;28;20850;-68
2023/12/03 10:03:52;;;;;;;10.67;4.23;;;;;;;;;;5056904;28;20432;-68
2023/12/03 10:06:45;;;;;;;9.97;5.60;;;;;;;;;;5039914;28;20526;-68
2023/12/03 10:09:30;;;;;;;9.97;5.37;;;;;;;;;;5072548;28;20400;-68
2023/12/03 10:11:57;;;;;;;10.07;5.60;;;;;;;;;;5055835;28;20535;-69
2023/12/03 10:14:24;;;;;;;9.07;4.93;;;;;;;;;;5055819;28;20454;-68
2023/12/03 10:16:51;;;;;;;12.30;6.03;;;;;;;;;;5056205;28;20460;-68
2023/12/03 10:23:18;;;;;;;12.53;5.57;;;;;;;;;;5073782;28;20359;-69
2023/12/03 10:26:13;;;;;;;10.30;5.50;;;;;;;;;;5072217;28;20451;-68
2023/12/03 10:28:41;;;;;;;7.67;3.87;;;;;;;;;;5055601;28;20470;-68
2023/12/03 10:35:07;;;;;;;9.60;4.77;;;;;;;;;;5073737;28;20372;-68
2023/12/03 10:37:34;;;;;;;9.33;5.10;;;;;;;;;;5055606;28;20506;-68
2023/12/03 10:40:04;;;;;;;8.57;3.77;;;;;;;;;;5073989;28;20539;-68
2023/12/03 10:42:44;;;;;;;11.93;5.70;;;;;;;;;;5072524;28;20424;-68
2023/12/03 10:52:36;;;;;;;13.10;7.17;;;;;;;;;;5074166;28;20383;-69
2023/12/03 10:55:06;;;;;;;11.63;6.27;;;;;;;;;;5073892;28;20421;-69
2023/12/03 10:57:40;;;;;;;11.20;6.13;;;;;;;;;;5053287;28;20477;-67
2023/12/03 11:00:18;;;;;;;8.37;4.63;;;;;;;;;;5034519;28;20522;-69
2023/12/03 11:02:46;;;;;;;6.40;3.87;;;;;;;;;;5035781;28;20479;-69
2023/12/03 11:05:25;;;;;;;7.53;4.60;;;;;;;;;;5036219;28;20965;-69
2023/12/03 11:07:52;;;;;;;6.03;3.50;;;;;;;;;;5035980;28;20502;-69
2023/12/03 11:14:19;;;;;;;7.60;4.30;;;;;;;;;;5053604;28;20384;-70
2023/12/03 11:20:32;;;;;;;7.27;3.70;;;;;;;;;;5073030;28;20428;-69
2023/12/03 11:26:59;;;;;;;7.97;4.00;;;;;;;;;;5073613;28;20906;-68
2023/12/03 11:29:49;;;;;;;6.93;3.43;;;;;;;;;;5072208;28;20519;-68
2023/12/03 11:32:34;;;;;;;5.77;3.40;;;;;;;;;;5072761;28;20391;-68
2023/12/03 11:35:17;;;;;;;9.47;4.80;;;;;;;;;;5055494;28;20948;-68
2023/12/03 11:37:45;;;;;;;7.63;3.80;;;;;;;;;;5073090;28;20444;-68
2023/12/03 11:40:14;;;;;;;6.67;3.83;;;;;;;;;;5072674;28;20489;-68
2023/12/03 11:42:42;;;;;;;8.23;4.83;;;;;;;;;;5056161;28;20531;-68
2023/12/03 11:45:30;;;;;;;7.47;4.37;;;;;;;;;;5058488;28;20867;-68
2023/12/03 11:48:22;;;;;;;9.30;5.03;;;;;;;;;;5073031;28;20482;-67
2023/12/03 11:50:50;;;;;;;10.53;5.77;;;;;;;;;;5072086;28;20470;-68
2023/12/03 11:53:20;;;;;;;10.13;5.23;;;;;;;;;;5059175;28;20424;-69
2023/12/03 11:55:51;;;;;;;12.20;5.90;;;;;;;;;;5073862;28;20466;-67
2023/12/03 11:58:22;;;;;;;9.77;5.27;;;;;;;;;;5075679;28;20448;-68
2023/12/03 12:04:49;;;;;;;9.53;5.33;;;;;;;;;;5076515;28;20376;-69
2023/12/03 12:10:33;;;;;;;6.63;3.90;;;;;;;;;;5076541;28;20850;-67
2023/12/03 12:17:00;;;;;;;6.73;3.77;;;;;;;;;;5056461;28;20512;-67
2023/12/03 12:19:27;;;;;;;7.97;4.40;;;;;;;;;;5055830;28;20914;-68
2023/12/03 12:21:55;;;;;;;7.17;4.87;;;;;;;;;;5055867;28;20421;-67
2023/12/03 12:24:23;;;;;;;6.43;4.03;;;;;;;;;;5037622;28;20780;-68
2023/12/03 12:26:51;;;;;;;6.33;4.17;;;;;;;;;;5054236;28;20413;-68
2023/12/03 12:29:36;;;;;;;7.03;4.17;;;;;;;;;;5055853;28;20386;-68
2023/12/03 12:32:06;;;;;;;7.77;4.27;;;;;;;;;;5056585;28;20424;-68
2023/12/03 12:34:50;;;;;;;7.27;4.43;;;;;;;;;;5055240;28;20393;-68
2023/12/03 12:37:21;;;;;;;10.00;4.93;;;;;;;;;;5055232;28;20464;-68
2023/12/03 12:43:17;;;;;;;7.97;4.47;;;;;;;;;;5070763;28;20471;-68
2023/12/03 12:45:44;;;;;;;9.93;5.23;;;;;;;;;;5038277;28;20429;-68
2023/12/03 12:48:35;;;;;;;9.13;5.20;;;;;;;;;;5054115;28;20908;-68
2023/12/03 12:51:21;;;;;;;8.70;4.60;;;;;;;;;;5041916;28;20409;-68
2023/12/03 12:53:54;;;;;;;7.77;4.57;;;;;;;;;;5055609;28;20519;-68
2023/12/03 12:56:23;;;;;;;10.10;4.90;;;;;;;;;;5029940;28;20517;-71
2023/12/03 13:06:10;;;;;;;6.93;3.93;;;;;;;;;;5035266;28;20373;-69
2023/12/03 13:08:37;;;;;;;6.30;3.73;;;;;;;;;;5018528;28;20436;-68
2023/12/03 13:11:04;;;;;;;8.07;4.27;;;;;;;;;;5034343;28;20513;-69
2023/12/03 13:13:34;;;;;;;6.33;3.87;;;;;;;;;;5034269;28;20442;-69
2023/12/03 13:16:23;;;;;;;6.80;4.30;;;;;;;;;;5034791;28;20387;-69
2023/12/03 13:18:54;;;;;;;9.37;4.57;;;;;;;;;;5017728;28;20835;-68
2023/12/03 13:21:40;;;;;;;5.47;3.63;;;;;;;;;;5034235;28;20406;-69
2023/12/03 13:24:17;;;;;;;8.50;4.97;;;;;;;;;;5034403;28;20429;-68
2023/12/03 13:26:52;;;;;;;8.67;5.00;;;;;;;;;;5033859;28;20422;-68
2023/12/03 13:29:18;;;;;;;9.70;5.07;;;;;;;;;;5034657;28;20428;-68
2023/12/03 13:34:59;;;;;;;8.20;4.13;;;;;;;;;;5032773;28;20454;-69
2023/12/03 13:37:35;;;;;;;8.47;5.20;;;;;;;;;;5018266;28;20460;-68
2023/12/03 13:43:55;;;;;;;7.30;4.30;;;;;;;;;;5035159;28;20794;-69
2023/12/03 13:46:24;;;;;;;8.67;5.50;;;;;;;;;;5018460;28;20438;-69
2023/12/03 13:48:50;;;;;;;8.67;5.00;;;;;;;;;;5049631;28;20549;-68
2023/12/03 13:59:17;;;;;;;12.07;7.13;;;;;;;;;;5055109;28;20467;-69
2023/12/03 14:01:44;;;;;;;12.57;6.87;;;;;;;;;;5075658;28;20786;-68
2023/12/03 14:04:11;;;;;;;14.13;7.53;;;;;;;;;;5056928;28;20429;-68
2023/12/03 14:06:39;;;;;;;14.10;8.90;;;;;;;;;;5072976;28;20531;-68
2023/12/03 14:09:07;;;;;;;10.00;6.60;;;;;;;;;;5055449;28;20430;-69
2023/12/03 14:11:36;;;;;;;16.83;9.03;;;;;;;;;;5040527;28;20424;-69
2023/12/03 14:14:03;;;;;;;20.73;9.10;;;;;;;;;;5040028;28;20442;-68
2023/12/03 14:16:31;;;;;;;18.50;9.00;;;;;;;;;;5056507;28;20429;-68
2023/12/03 14:19:03;;;;;;;22.10;10.23;;;;;;;;;;5041453;28;20448;-69
2023/12/03 14:21:32;;;;;;;24.07;11.00;;;;;;;;;;5056339;28;20436;-69
2023/12/03 14:31:59;;;;;;;13.27;7.87;;;;;;;;;;5074103;28;20925;-68
2023/12/03 14:34:28;;;;;;;11.23;6.77;;;;;;;;;;5056884;28;20427;-68
2023/12/03 14:36:56;;;;;;;16.13;7.77;;;;;;;;;;5056735;28;20930;-68
2023/12/03 14:39:23;;;;;;;16.87;9.23;;;;;;;;;;5039253;28;20465;-69
2023/12/03 14:42:29;;;;;;;14.93;8.20;;;;;;;;;;5054304;28;20806;-68
2023/12/03 14:44:57;;;;;;;13.67;7.60;;;;;;;;;;5073407;28;20423;-68
2023/12/03 14:51:20;;;;;;;19.27;9.80;;;;;;;;;;5073841;28;20352;-68
2023/12/03 14:53:47;;;;;;;19.10;10.30;;;;;;;;;;5040319;28;20432;-67
2023/12/03 14:56:44;;;;;;;19.87;11.13;;;;;;;;;;5055032;28;20522;-67
2023/12/03 14:59:12;;;;;;;18.20;9.93;;;;;;;;;;5054260;28;20487;-69
2023/12/03 15:01:40;;;;;;;21.57;10.00;;;;;;;;;;5073678;28;20864;-67
2023/12/03 15:04:08;;;;;;;21.27;10.93;;;;;;;;;;5039099;28;20428;-68
2023/12/03 15:10:52;;;;;;;18.43;9.37;;;;;;;;;;5073585;28;20367;-68
2023/12/03 15:13:19;;;;;;;17.20;10.03;;;;;;;;;;5038298;28;20440;-68
2023/12/03 15:15:46;;;;;;;18.90;10.60;;;;;;;;;;5072496;28;20957;-68
2023/12/03 15:18:14;;;;;;;16.63;9.53;;;;;;;;;;5073872;28;20509;-68
2023/12/03 15:24:38;;;;;;;12.93;7.57;;;;;;;;;;5073488;28;20466;-68
2023/12/03 15:27:10;;;;;;;13.67;7.97;;;;;;;;;;5075729;28;20891;-68
2023/12/03 15:29:38;;;;;;;15.13;9.23;;;;;;;;;;5042058;28;20432;-68
2023/12/03 15:32:05;;;;;;;21.33;10.80;;;;;;;;;;5058946;28;20456;-67
2023/12/03 15:34:34;;;;;;;23.70;12.27;;;;;;;;;;5059473;28;20459;-67
2023/12/03 15:41:01;;;;;;;23.57;11.07;;;;;;;;;;5077142;28;20902;-68
2023/12/03 15:43:34;;;;;;;20.87;10.70;;;;;;;;;;5060772;28;20480;-67
2023/12/03 15:46:14;;;;;;;20.30;11.03;;;;;;;;;;5043004;28;20432;-68
2023/12/03 15:48:41;;;;;;;18.57;9.90;;;;;;;;;;5040645;28;20440;-67
2023/12/03 15:51:28;;;;;;;19.33;10.13;;;;;;;;;;5044810;28;20478;-67
2023/12/03 15:53:59;;;;;;;18.60;9.90;;;;;;;;;;5076831;28;20420;-67
2023/12/03 16:00:38;;;;;;;18.23;9.50;;;;;;;;;;5076248;28;20462;-67
2023/12/03 16:03:06;;;;;;;18.87;9.37;;;;;;;;;;5041842;28;20951;-68
2023/12/03 16:05:34;;;;;;;18.70;9.73;;;;;;;;;;5041636;28;20955;-69
2023/12/03 16:11:39;;;;;;;19.10;9.70;;;;;;;;;;5076615;28;20480;-67
2023/12/03 16:18:06;;;;;;;18.93;9.57;;;;;;;;;;5076400;28;20438;-67
2023/12/03 16:24:01;;;;;;;15.83;9.43;;;;;;;;;;5075152;28;20427;-69
2023/12/03 16:30:29;;;;;;;27.03;12.73;;;;;;;;;;5076160;28;20356;-69
2023/12/03 16:33:00;;;;;;;26.83;13.90;;;;;;;;;;5043137;28;20973;-69
2023/12/03 16:35:44;;;;;;;26.43;12.57;;;;;;;;;;5075770;28;20806;-69
2023/12/03 16:38:36;;;;;;;27.70;13.57;;;;;;;;;;5056940;28;20452;-69
2023/12/03 16:45:02;;;;;;;24.70;12.40;;;;;;;;;;5075982;28;20375;-69
2023/12/03 16:47:30;;;;;;;30.20;15.10;;;;;;;;;;5041389;28;20931;-69
2023/12/03 16:49:59;;;;;;;31.40;14.13;;;;;;;;;;5075754;28;20432;-68
2023/12/03 16:52:29;;;;;;;52.83;22.33;;;;;;;;;;5058276;28;20466;-69
2023/12/03 16:54:58;;;;;;;24.03;12.17;;;;;;;;;;5056891;28;21020;-68
2023/12/03 16:57:27;;;;;;;26.60;12.30;;;;;;;;;;5056791;28;20427;-68
2023/12/03 16:59:56;;;;;;;25.73;13.43;;;;;;;;;;5037938;28;20550;-68
2023/12/03 17:02:24;;;;;;;26.30;13.67;;;;;;;;;;5055204;28;20931;-67
2023/12/03 17:04:52;;;;;;;29.70;16.30;;;;;;;;;;5055581;28;20518;-69
2023/12/03 17:07:19;;;;;;;36.77;19.43;;;;;;;;;;5038006;28;20433;-69
2023/12/03 17:09:47;;;;;;;29.90;16.43;;;;;;;;;;5054431;28;20432;-69
2023/12/03 17:12:38;;;;;;;26.77;13.53;;;;;;;;;;5052491;28;20449;-69
2023/12/03 17:15:16;;;;;;;24.03;12.43;;;;;;;;;;5054128;28;20514;-69
2023/12/03 17:21:43;;;;;;;35.97;15.40;;;;;;;;;;5055265;28;20436;-69
2023/12/03 17:24:10;;;;;;;29.37;14.63;;;;;;;;;;5055466;28;20464;-68
2023/12/03 17:26:55;;;;;;;21.67;11.40;;;;;;;;;;5054071;28;20742;-68
2023/12/03 17:29:39;;;;;;;16.20;8.87;;;;;;;;;;5052521;28;21009;-68
2023/12/03 17:32:08;;;;;;;15.93;8.00;;;;;;;;;;5055286;28;20401;-68
2023/12/03 17:38:37;;;;;;;20.13;9.30;;;;;;;;;;5054949;28;20428;-68
2023/12/03 17:41:04;;;;;;;14.60;7.73;;;;;;;;;;5053679;28;20441;-68
2023/12/03 17:43:32;;;;;;;10.83;7.03;;;;;;;;;;5037417;28;20433;-68
2023/12/03 17:46:10;;;;;;;16.70;8.70;;;;;;;;;;5052426;28;20425;-68
2023/12/03 17:52:47;;;;;;;14.80;7.83;;;;;;;;;;5053797;28;20779;-68
2023/12/03 17:55:16;;;;;;;13.90;6.97;;;;;;;;;;5054563;28;20429;-68
2023/12/03 18:01:43;;;;;;;12.93;7.77;;;;;;;;;;5068404;28;20513;-69
2023/12/03 18:04:10;;;;;;;15.70;7.80;;;;;;;;;;5071832;28;21018;-68
2023/12/03 18:06:40;;;;;;;16.67;8.70;;;;;;;;;;5040188;28;20512;-68
2023/12/03 18:09:10;;;;;;;12.90;7.73;;;;;;;;;;5055975;28;20497;-69
2023/12/03 18:15:32;;;;;;;20.20;10.57;;;;;;;;;;5074192;28;20792;-68
2023/12/03 18:18:00;;;;;;;21.63;10.23;;;;;;;;;;5056545;28;20428;-69
2023/12/03 18:24:32;;;;;;;13.97;7.17;;;;;;;;;;5073746;28;20418;-69
2023/12/03 18:30:59;;;;;;;13.80;7.10;;;;;;;;;;5073961;28;20461;-69
2023/12/03 18:33:26;;;;;;;12.93;6.90;;;;;;;;;;5055731;28;20428;-68
2023/12/03 18:35:55;;;;;;;11.60;6.53;;;;;;;;;;5072932;28;20454;-69
2023/12/03 18:38:23;;;;;;;11.80;6.90;;;;;;;;;;5038543;28;21032;-68
2023/12/03 18:40:53;;;;;;;11.43;6.70;;;;;;;;;;5055429;28;20440;-68
2023/12/03 18:43:39;;;;;;;11.63;7.10;;;;;;;;;;5058875;28;20384;-68
2023/12/03 18:46:07;;;;;;;15.20;8.07;;;;;;;;;;5056060;28;20436;-68
2023/12/03 18:48:34;;;;;;;16.27;8.87;;;;;;;;;;5056242;28;20433;-69
2023/12/03 18:51:02;;;;;;;18.97;10.10;;;;;;;;;;5056007;28;20752;-68
2023/12/03 18:53:29;;;;;;;18.30;9.30;;;;;;;;;;5072282;28;20915;-68
2023/12/03 18:56:14;;;;;;;16.70;9.43;;;;;;;;;;5072518;28;20503;-69
2023/12/03 19:02:42;;;;;;;13.67;6.63;;;;;;;;;;5069394;28;20557;-68
2023/12/03 19:05:13;;;;;;;13.53;6.60;;;;;;;;;;5040255;28;20642;-68
2023/12/03 19:08:00;;;;;;;10.77;6.53;;;;;;;;;;5058354;28;20477;-69
2023/12/03 19:13:42;;;;;;;10.63;5.63;;;;;;;;;;5073444;28;20432;-69
2023/12/03 19:16:16;;;;;;;8.80;5.00;;;;;;;;;;5073300;28;20796;-69
2023/12/03 19:19:00;;;;;;;10.70;5.70;;;;;;;;;;5041745;28;20448;-69
2023/12/03 19:21:27;;;;;;;11.53;5.77;;;;;;;;;;5073335;28;20462;-69
2023/12/03 19:23:56;;;;;;;16.40;8.07;;;;;;;;;;5039180;28;20435;-68
2023/12/03 19:26:49;;;;;;;18.57;9.47;;;;;;;;;;5054881;28;20915;-69
2023/12/03 19:29:15;;;;;;;13.97;6.77;;;;;;;;;;5071767;28;20419;-68
2023/12/03 19:35:43;;;;;;;13.80;6.03;;;;;;;;;;5073288;28;20403;-68
2023/12/03 19:38:11;;;;;;;13.47;5.63;;;;;;;;;;5072541;28;20827;-68
2023/12/03 19:40:38;;;;;;;10.83;6.20;;;;;;;;;;5056500;28;20796;-68
2023/12/03 19:43:06;;;;;;;10.33;4.57;;;;;;;;;;5054809;28;20428;-68
2023/12/03 19:49:36;;;;;;;10.00;5.30;;;;;;;;;;5072757;28;20532;-68
2023/12/03 19:52:05;;;;;;;9.37;4.17;;;;;;;;;;5038341;28;20447;-68
2023/12/03 19:58:49;;;;;;;8.20;4.27;;;;;;;;;;5072950;28;20443;-67
2023/12/03 20:01:19;;;;;;;13.03;6.47;;;;;;;;;;5067171;28;20839;-69
2023/12/03 20:03:49;;;;;;;10.77;5.87;;;;;;;;;;5038408;28;20899;-68
2023/12/03 20:06:16;;;;;;;15.30;7.30;;;;;;;;;;5072723;28;20434;-69